Fairbanks International Airport
PAFA : now visible

Aeroporto :











RITROVATECI SU...

 
LOGIN :

Iscrizione | Disclaimer

   EN    FR    IT 

 









Sommario :    VFR   VFR Marginale   IFR   IFR Intensivo   IFR Molto Intensivo
Visibilità : 
Base nubi : 
>= 8 km
>= 3000ft
5 / 8 km
1000 / 3000 ft
1500m / 5 km
500 / 1000 ft
800 / 1500m
200 / 500 ft
< 800m
< 200 ft
Simboli :   Temporali  Nebbia  Neve Forte  Precipitazioni Forti  Vento > 20 kt






- Altitudine del aeroporto : 439 ft
- Codice IATA : FAI


PAFA - Fairbanks International

ULTIMO METAR :
  • 021153Z 00000KT 10SM FEW075 BKN100 BKN140 09/08 A2952 RMK AO2 SLP999 60001 70019 T00940078 10156 20089 50001 $

METARs OBSOLETI :
  • 021053Z 31003KT 10SM FU FEW075 BKN100 BKN130 09/08 A2952 RMK AO2 SLP000 FU SE T00940083 $
  • 020953Z COR 18004KT 10SM FU SCT075 BKN095 BKN130 10/08 A2952 RMK AO2 SLP999 T01000083 $

TAF PAFA
Valido dal 02 a 12 ore il 03 a 18 ore UTC


021124Z 0212/0318 31003KT P6SM FEW080 BKN100 BKN130
FM022000 05008G18KT P6SM -SHRA VCTS BKN050CB BKN100 BKN200
FM030900 36002KT P6SM VCSH SCT050 BKN100
FIR PAZA / America del Nord



MetMap, La meteo Aeronautica in un colpo d'occhio ! - Copyright ORBIFLY Dicembre 2007 - Disclaimer

ORBIFLY MET'MAP TEAM :

Programmazione e sviluppo : Alexandra Zaïnal
Concezione : Baudouin d'Aumeries
Aiuto per la programmazione : Marc-Olivier Méhu
Supporto tecnico e logistico : Manuel Goepfert
Aiuto per la traduzione : Arnaldo La Scala

Contatto : metmap@orbifly.com




FONTI E CREDITI :

   NOAA       Earth
Advisory